Time,TemperatureF,DewpointF,PressureIn,WindDirection,WindDirectionDegrees,WindSpeedMPH,WindSpeedGustMPH,Humidity,HourlyPrecipIn,Conditions,Clouds,dailyrainin,SoftwareType,DateUTC
2013-10-12 00:01:00,38.8,22.7,30.06,West,267,7.2,7.2,52,0.00,,---,0.00,VWS V14.01,2013-10-12 06:01:00,
2013-10-12 00:07:00,38.8,23.2,30.06,West,272,8.3,8.3,53,0.00,,---,0.00,VWS V14.01,2013-10-12 06:07:00,
2013-10-12 00:13:00,38.5,22.9,30.06,WNW,285,8.3,8.3,53,0.00,,---,0.00,VWS V14.01,2013-10-12 06:13:00,
2013-10-12 00:18:00,38.5,22.9,30.06,WNW,287,8.7,8.7,53,0.00,,---,0.00,VWS V14.01,2013-10-12 06:18:00,
2013-10-12 00:24:00,38.5,23.3,30.06,West,264,8.7,8.7,54,0.00,,---,0.00,VWS V14.01,2013-10-12 06:24:00,
2013-10-12 00:29:00,38.5,23.3,30.06,West,280,8.3,8.3,54,0.00,,---,0.00,VWS V14.01,2013-10-12 06:29:00,
2013-10-12 00:35:00,38.5,23.3,30.06,West,275,7.6,7.6,54,0.00,,---,0.00,VWS V14.01,2013-10-12 06:35:00,
2013-10-12 00:40:00,37.9,22.8,30.06,West,272,7.6,7.6,54,0.00,,---,0.00,VWS V14.01,2013-10-12 06:40:00,
2013-10-12 00:46:00,37.6,22.9,30.06,West,278,8.3,8.3,55,0.00,,---,0.00,VWS V14.01,2013-10-12 06:46:00,
2013-10-12 00:52:00,37.6,22.9,30.06,West,278,8.3,8.3,55,0.00,,---,0.00,VWS V14.01,2013-10-12 06:52:00,
2013-10-12 00:57:00,37.2,23.0,30.06,West,275,8.3,8.3,56,0.00,,---,0.00,VWS V14.01,2013-10-12 06:57:00,
2013-10-12 01:02:00,36.9,22.6,30.06,West,275,8.3,8.3,56,0.00,,---,0.00,VWS V14.01,2013-10-12 07:02:00,
2013-10-12 01:07:00,36.7,22.5,30.06,WNW,286,6.7,6.7,56,0.00,,---,0.00,VWS V14.01,2013-10-12 07:07:00,
2013-10-12 01:12:00,36.5,22.7,30.06,West,277,7.6,7.6,57,0.00,,---,0.00,VWS V14.01,2013-10-12 07:12:00,
2013-10-12 01:17:00,36.5,22.7,30.06,WNW,285,8.7,8.7,57,0.00,,---,0.00,VWS V14.01,2013-10-12 07:17:00,
2013-10-12 01:23:00,37.0,24.1,30.06,WSW,256,8.3,8.3,59,0.00,,---,0.00,VWS V14.01,2013-10-12 07:23:00,
2013-10-12 01:28:00,37.6,24.6,30.06,West,264,8.7,8.7,59,0.00,,---,0.00,VWS V14.01,2013-10-12 07:28:00,
2013-10-12 01:34:00,37.6,24.6,30.06,WSW,256,8.7,8.7,59,0.00,,---,0.00,VWS V14.01,2013-10-12 07:34:00,
2013-10-12 01:39:00,37.4,24.0,30.06,WSW,253,8.3,8.3,58,0.00,,---,0.00,VWS V14.01,2013-10-12 07:39:00,
2013-10-12 01:45:00,37.0,24.1,30.06,West,259,5.8,5.8,59,0.00,,---,0.00,VWS V14.01,2013-10-12 07:45:00,
2013-10-12 01:50:00,36.9,23.9,30.06,West,275,9.2,9.2,59,0.00,,---,0.00,VWS V14.01,2013-10-12 07:50:00,
2013-10-12 01:56:00,36.9,24.3,30.06,WNW,285,8.7,8.7,60,0.00,,---,0.00,VWS V14.01,2013-10-12 07:56:00,
2013-10-12 02:02:00,37.2,25.4,30.06,West,278,10.1,10.1,62,0.00,,---,0.00,VWS V14.01,2013-10-12 08:02:00,
2013-10-12 02:07:00,37.6,25.4,30.09,West,273,9.2,9.2,61,0.00,,---,0.00,VWS V14.01,2013-10-12 08:07:00,
2013-10-12 02:13:00,37.4,25.2,30.09,West,273,9.2,9.2,61,0.00,,---,0.00,VWS V14.01,2013-10-12 08:13:00,
2013-10-12 02:18:00,37.2,25.0,30.09,West,274,8.1,8.1,61,0.00,,---,0.00,VWS V14.01,2013-10-12 08:18:00,
2013-10-12 02:23:00,37.0,24.9,30.09,West,275,8.7,8.7,61,0.00,,---,0.00,VWS V14.01,2013-10-12 08:23:00,
2013-10-12 02:28:00,37.0,25.2,30.09,West,281,8.1,8.7,62,0.00,,---,0.00,VWS V14.01,2013-10-12 08:28:00,
2013-10-12 02:34:00,37.4,26.0,30.09,WNW,283,11.0,11.0,63,0.00,,---,0.00,VWS V14.01,2013-10-12 08:34:00,
2013-10-12 02:40:00,37.8,26.3,30.09,WNW,285,11.0,11.0,63,0.00,,---,0.00,VWS V14.01,2013-10-12 08:40:00,
2013-10-12 02:45:00,37.8,25.9,30.09,WNW,284,9.6,9.6,62,0.00,,---,0.00,VWS V14.01,2013-10-12 08:45:00,
2013-10-12 02:51:00,37.6,25.8,30.09,West,279,6.3,10.1,62,0.00,,---,0.00,VWS V14.01,2013-10-12 08:51:00,
2013-10-12 02:56:00,37.6,25.8,30.09,West,280,8.3,8.3,62,0.00,,---,0.00,VWS V14.01,2013-10-12 08:56:00,
2013-10-12 03:01:00,37.9,26.1,30.09,WNW,298,10.1,10.5,62,0.00,,---,0.00,VWS V14.01,2013-10-12 09:01:00,
2013-10-12 03:06:00,38.3,26.8,30.09,West,278,12.3,12.3,63,0.00,,---,0.00,VWS V14.01,2013-10-12 09:06:00,
2013-10-12 03:12:00,38.8,27.3,30.09,West,276,10.5,12.3,63,0.00,,---,0.00,VWS V14.01,2013-10-12 09:12:00,
2013-10-12 03:17:00,39.2,27.3,30.09,West,280,8.7,10.5,62,0.00,,---,0.00,VWS V14.01,2013-10-12 09:17:00,
2013-10-12 03:22:00,39.7,27.4,30.09,WNW,285,10.1,10.1,61,0.00,,---,0.00,VWS V14.01,2013-10-12 09:22:00,
2013-10-12 03:27:00,39.9,27.6,30.09,WNW,288,11.4,11.4,61,0.00,,---,0.00,VWS V14.01,2013-10-12 09:27:00,
2013-10-12 03:32:00,40.3,27.5,30.09,WNW,286,8.7,8.7,60,0.00,,---,0.00,VWS V14.01,2013-10-12 09:32:00,
2013-10-12 03:37:00,40.6,27.9,30.09,West,280,8.1,8.1,60,0.00,,---,0.00,VWS V14.01,2013-10-12 09:37:00,
2013-10-12 03:43:00,40.6,27.0,30.09,WNW,284,8.7,8.7,58,0.00,,---,0.00,VWS V14.01,2013-10-12 09:43:00,
2013-10-12 03:48:00,40.6,27.0,30.09,WNW,284,8.7,8.7,58,0.00,,---,0.00,VWS V14.01,2013-10-12 09:48:00,
2013-10-12 03:54:00,40.6,27.0,30.09,West,270,8.1,8.1,58,0.00,,---,0.00,VWS V14.01,2013-10-12 09:54:00,
2013-10-12 03:59:00,40.5,26.4,30.09,West,277,8.7,8.7,57,0.00,,---,0.00,VWS V14.01,2013-10-12 09:59:00,
2013-10-12 04:05:00,40.3,25.9,30.12,West,275,8.1,8.1,56,0.00,,---,0.00,VWS V14.01,2013-10-12 10:05:00,
2013-10-12 04:10:00,39.9,25.5,30.12,West,263,7.6,7.6,56,0.00,,---,0.00,VWS V14.01,2013-10-12 10:10:00,
2013-10-12 04:15:00,39.6,25.2,30.12,West,265,8.1,8.3,56,0.00,,---,0.00,VWS V14.01,2013-10-12 10:15:00,
2013-10-12 04:20:00,39.2,24.4,30.12,West,271,8.1,8.1,55,0.00,,---,0.00,VWS V14.01,2013-10-12 10:20:00,
2013-10-12 04:25:00,38.8,24.1,30.12,West,272,8.1,8.1,55,0.00,,---,0.00,VWS V14.01,2013-10-12 10:25:00,
2013-10-12 04:30:00,38.5,23.7,30.12,West,277,8.1,8.1,55,0.00,,---,0.00,VWS V14.01,2013-10-12 10:30:00,
2013-10-12 04:35:00,38.1,23.4,30.12,West,275,6.7,6.7,55,0.00,,---,0.00,VWS V14.01,2013-10-12 10:35:00,
2013-10-12 04:40:00,37.9,23.7,30.12,WNW,290,6.7,8.7,56,0.00,,---,0.00,VWS V14.01,2013-10-12 10:40:00,
2013-10-12 04:46:00,37.8,23.5,30.12,WNW,293,8.7,8.7,56,0.00,,---,0.00,VWS V14.01,2013-10-12 10:46:00,
2013-10-12 04:51:00,37.9,23.7,30.12,WNW,286,8.3,8.3,56,0.00,,---,0.00,VWS V14.01,2013-10-12 10:51:00,
2013-10-12 04:57:00,38.1,23.8,30.12,WNW,286,8.3,8.3,56,0.00,,---,0.00,VWS V14.01,2013-10-12 10:57:00,
2013-10-12 05:02:00,38.1,23.8,30.12,WNW,284,6.3,8.1,56,0.00,,---,0.00,VWS V14.01,2013-10-12 11:02:00,
2013-10-12 05:07:00,37.9,23.7,30.12,WNW,288,5.4,5.4,56,0.00,,---,0.00,VWS V14.01,2013-10-12 11:07:00,
2013-10-12 05:12:00,37.8,23.5,30.12,NW,315,6.7,6.7,56,0.00,,---,0.00,VWS V14.01,2013-10-12 11:12:00,
2013-10-12 05:18:00,37.8,23.5,30.12,NW,321,8.3,8.3,56,0.00,,---,0.00,VWS V14.01,2013-10-12 11:18:00,
2013-10-12 05:23:00,37.9,24.1,30.12,NW,321,8.3,8.3,57,0.00,,---,0.00,VWS V14.01,2013-10-12 11:23:00,
2013-10-12 05:29:00,38.3,24.4,30.12,WNW,303,10.1,10.1,57,0.00,,---,0.00,VWS V14.01,2013-10-12 11:29:00,
2013-10-12 05:35:00,38.5,24.6,30.15,WNW,297,10.5,10.5,57,0.00,,---,0.00,VWS V14.01,2013-10-12 11:35:00,
2013-10-12 05:40:00,38.8,24.9,30.15,WNW,293,10.5,10.5,57,0.00,,---,0.00,VWS V14.01,2013-10-12 11:40:00,
2013-10-12 05:45:00,39.2,25.3,30.15,WNW,295,10.5,10.5,57,0.00,,---,0.00,VWS V14.01,2013-10-12 11:45:00,
2013-10-12 05:50:00,39.6,25.2,30.15,WNW,291,12.3,12.3,56,0.00,,---,0.00,VWS V14.01,2013-10-12 11:50:00,
2013-10-12 05:55:00,39.7,25.3,30.15,WNW,295,12.8,12.8,56,0.00,,---,0.00,VWS V14.01,2013-10-12 11:55:00,
2013-10-12 06:01:00,39.9,25.5,30.15,WNW,296,12.8,12.8,56,0.00,,---,0.00,VWS V14.01,2013-10-12 12:01:00,
2013-10-12 06:06:00,40.3,25.4,30.15,WNW,296,12.8,12.8,55,0.00,,---,0.00,VWS V14.01,2013-10-12 12:06:00,
2013-10-12 06:11:00,40.6,25.8,30.15,WNW,287,13.2,13.2,55,0.00,,---,0.00,VWS V14.01,2013-10-12 12:11:00,
2013-10-12 06:16:00,40.8,25.5,30.15,WNW,287,13.2,13.2,54,0.00,,---,0.00,VWS V14.01,2013-10-12 12:16:00,
2013-10-12 06:22:00,41.0,25.2,30.15,WNW,289,13.2,13.2,53,0.00,,---,0.00,VWS V14.01,2013-10-12 12:22:00,
2013-10-12 06:27:00,41.0,25.2,30.15,WNW,289,13.2,13.2,53,0.00,,---,0.00,VWS V14.01,2013-10-12 12:27:00,
2013-10-12 06:32:00,41.0,25.2,30.15,WNW,294,10.1,10.1,53,0.00,,---,0.00,VWS V14.01,2013-10-12 12:32:00,
2013-10-12 06:38:00,40.8,25.0,30.15,WNW,294,10.1,10.1,53,0.00,,---,0.00,VWS V14.01,2013-10-12 12:38:00,
2013-10-12 06:43:00,40.6,24.9,30.15,WNW,298,8.3,8.3,53,0.00,,---,0.00,VWS V14.01,2013-10-12 12:43:00,
2013-10-12 06:49:00,40.3,24.5,30.15,WNW,298,8.3,8.3,53,0.00,,---,0.00,VWS V14.01,2013-10-12 12:49:00,
2013-10-12 06:54:00,39.7,23.6,30.15,WNW,300,5.8,5.8,52,0.00,,---,0.00,VWS V14.01,2013-10-12 12:54:00,
2013-10-12 07:01:00,39.2,23.1,30.15,WNW,300,5.8,5.8,52,0.00,,---,0.00,VWS V14.01,2013-10-12 13:01:00,
2013-10-12 07:07:00,38.8,23.2,30.15,WNW,300,5.8,5.8,53,0.00,,---,0.00,VWS V14.01,2013-10-12 13:07:00,
2013-10-12 07:12:00,38.7,23.0,30.15,WNW,300,5.8,5.8,53,0.00,,---,0.00,VWS V14.01,2013-10-12 13:12:00,
2013-10-12 07:18:00,38.5,22.9,30.15,NW,311,8.1,8.1,53,0.00,,---,0.00,VWS V14.01,2013-10-12 13:18:00,
2013-10-12 07:24:00,38.7,23.5,30.15,NW,307,8.1,8.1,54,0.00,,---,0.00,VWS V14.01,2013-10-12 13:24:00,
2013-10-12 07:29:00,38.7,23.5,30.15,NW,307,8.1,8.1,54,0.00,,---,0.00,VWS V14.01,2013-10-12 13:29:00,
2013-10-12 07:35:00,38.8,23.6,30.18,WNW,293,7.6,8.1,54,0.00,,---,0.00,VWS V14.01,2013-10-12 13:35:00,
2013-10-12 07:41:00,39.4,24.1,30.18,WNW,293,7.6,7.6,54,0.00,,---,0.00,VWS V14.01,2013-10-12 13:41:00,
2013-10-12 07:46:00,39.6,24.3,30.18,WNW,303,7.2,7.6,54,0.00,,---,0.00,VWS V14.01,2013-10-12 13:46:00,
2013-10-12 07:51:00,39.9,25.1,30.18,WNW,303,7.2,7.2,55,0.00,,---,0.00,VWS V14.01,2013-10-12 13:51:00,
2013-10-12 07:56:00,40.5,25.6,30.18,WNW,303,7.2,7.2,55,0.00,,---,0.00,VWS V14.01,2013-10-12 13:56:00,
2013-10-12 08:01:00,40.8,25.9,30.18,West,275,6.3,6.3,55,0.00,,---,0.00,VWS V14.01,2013-10-12 14:01:00,
2013-10-12 08:07:00,41.4,26.0,30.18,West,275,6.3,6.3,54,0.00,,---,0.00,VWS V14.01,2013-10-12 14:07:00,
2013-10-12 08:13:00,41.7,26.3,30.18,WNW,285,4.9,8.1,54,0.00,,---,0.00,VWS V14.01,2013-10-12 14:13:00,
2013-10-12 08:18:00,42.1,26.6,30.18,West,270,6.3,6.3,54,0.00,,---,0.00,VWS V14.01,2013-10-12 14:18:00,
2013-10-12 08:24:00,42.6,27.1,30.18,WNW,289,6.3,8.7,54,0.00,,---,0.00,VWS V14.01,2013-10-12 14:24:00,
2013-10-12 08:30:00,43.3,27.4,30.18,NW,304,6.3,7.6,53,0.00,,---,0.00,VWS V14.01,2013-10-12 14:30:00,
2013-10-12 08:35:00,43.9,27.9,30.21,West,279,5.8,7.6,53,0.00,,---,0.00,VWS V14.01,2013-10-12 14:35:00,
2013-10-12 08:41:00,44.8,27.8,30.21,WNW,287,7.6,8.3,51,0.00,,---,0.00,VWS V14.01,2013-10-12 14:41:00,
2013-10-12 08:46:00,45.5,28.0,30.21,WNW,292,10.5,11.0,50,0.00,,---,0.00,VWS V14.01,2013-10-12 14:46:00,
2013-10-12 08:52:00,46.0,27.5,30.21,NW,310,6.3,8.7,48,0.00,,---,0.00,VWS V14.01,2013-10-12 14:52:00,
2013-10-12 08:58:00,46.2,26.6,30.21,WNW,303,10.1,10.1,46,0.00,,---,0.00,VWS V14.01,2013-10-12 14:58:00,
2013-10-12 09:03:00,46.6,25.3,30.21,WNW,285,6.3,6.3,43,0.00,,---,0.00,VWS V14.01,2013-10-12 15:03:00,
2013-10-12 09:09:00,46.8,25.5,30.21,WNW,287,8.7,8.7,43,0.00,,---,0.00,VWS V14.01,2013-10-12 15:09:00,
2013-10-12 09:14:00,46.9,24.5,30.21,WNW,297,8.3,8.3,41,0.00,,---,0.00,VWS V14.01,2013-10-12 15:14:00,
2013-10-12 09:19:00,47.3,24.8,30.21,NW,307,5.8,5.8,41,0.00,,---,0.00,VWS V14.01,2013-10-12 15:19:00,
2013-10-12 09:24:00,47.5,25.0,30.21,West,264,5.8,6.3,41,0.00,,---,0.00,VWS V14.01,2013-10-12 15:24:00,
2013-10-12 09:30:00,47.8,24.7,30.21,NW,315,4.0,6.3,40,0.00,,---,0.00,VWS V14.01,2013-10-12 15:30:00,
2013-10-12 09:36:00,48.7,24.9,30.21,NW,311,5.8,5.8,39,0.00,,---,0.00,VWS V14.01,2013-10-12 15:36:00,
2013-10-12 09:41:00,48.7,24.3,30.21,NNW,332,7.6,8.7,38,0.00,,---,0.00,VWS V14.01,2013-10-12 15:41:00,
2013-10-12 09:46:00,48.7,24.3,30.24,WNW,293,0.0,3.1,38,0.00,,---,0.00,VWS V14.01,2013-10-12 15:46:00,
2013-10-12 09:52:00,48.7,23.6,30.24,NW,308,5.4,5.8,37,0.00,,---,0.00,VWS V14.01,2013-10-12 15:52:00,
2013-10-12 09:57:00,48.9,23.8,30.24,NW,304,5.8,6.3,37,0.00,,---,0.00,VWS V14.01,2013-10-12 15:57:00,
2013-10-12 10:02:00,49.1,24.0,30.24,NW,313,5.8,5.8,37,0.00,,---,0.00,VWS V14.01,2013-10-12 16:02:00,
2013-10-12 10:08:00,49.5,24.3,30.24,NW,313,3.6,6.3,37,0.00,,---,0.00,VWS V14.01,2013-10-12 16:08:00,
2013-10-12 10:14:00,49.8,24.6,30.24,NW,316,6.3,6.3,37,0.00,,---,0.00,VWS V14.01,2013-10-12 16:14:00,
2013-10-12 10:19:00,49.8,24.6,30.24,NW,307,4.0,5.8,37,0.00,,---,0.00,VWS V14.01,2013-10-12 16:19:00,
2013-10-12 10:24:00,49.8,24.0,30.24,NW,316,5.8,5.8,36,0.00,,---,0.00,VWS V14.01,2013-10-12 16:24:00,
2013-10-12 10:30:00,49.8,24.0,30.24,NW,310,5.8,8.1,36,0.00,,---,0.00,VWS V14.01,2013-10-12 16:30:00,
2013-10-12 10:35:00,49.6,23.8,30.24,NW,315,5.4,5.4,36,0.00,,---,0.00,VWS V14.01,2013-10-12 16:35:00,
2013-10-12 10:41:00,50.0,23.4,30.24,WNW,303,5.8,6.3,35,0.00,,---,0.00,VWS V14.01,2013-10-12 16:41:00,
2013-10-12 10:47:00,50.5,23.2,30.24,WNW,286,5.8,6.3,34,0.00,,---,0.00,VWS V14.01,2013-10-12 16:47:00,
2013-10-12 10:52:00,50.9,23.5,30.24,West,279,0.0,0.0,34,0.00,,---,0.00,VWS V14.01,2013-10-12 16:52:00,
2013-10-12 10:58:00,50.9,22.8,30.24,NW,312,0.0,0.0,33,0.00,,---,0.00,VWS V14.01,2013-10-12 16:58:00,
2013-10-12 11:04:00,51.1,23.0,30.24,WNW,303,0.0,0.0,33,0.00,,---,0.00,VWS V14.01,2013-10-12 17:04:00,
2013-10-12 11:09:00,51.4,22.6,30.24,West,261,5.8,5.8,32,0.00,,---,0.00,VWS V14.01,2013-10-12 17:09:00,
2013-10-12 11:15:00,51.8,22.9,30.24,WSW,257,0.0,0.0,32,0.00,,---,0.00,VWS V14.01,2013-10-12 17:15:00,
2013-10-12 11:20:00,52.5,22.8,30.24,SSW,195,7.6,7.6,31,0.00,,---,0.00,VWS V14.01,2013-10-12 17:20:00,
2013-10-12 11:26:00,53.1,23.2,30.24,South,190,0.0,2.2,31,0.00,,---,0.00,VWS V14.01,2013-10-12 17:26:00,
2013-10-12 11:31:00,53.4,23.6,30.24,SSW,206,4.0,4.0,31,0.00,,---,0.00,VWS V14.01,2013-10-12 17:31:00,
2013-10-12 11:36:00,53.4,22.8,30.24,SW,236,3.1,3.1,30,0.00,,---,0.00,VWS V14.01,2013-10-12 17:36:00,
2013-10-12 11:42:00,53.4,22.0,30.24,WSW,253,0.0,0.0,29,0.00,,---,0.00,VWS V14.01,2013-10-12 17:42:00,
2013-10-12 11:47:00,53.8,22.3,30.24,SW,223,3.1,3.1,29,0.00,,---,0.00,VWS V14.01,2013-10-12 17:47:00,
2013-10-12 11:53:00,54.1,22.6,30.24,South,189,2.7,2.7,29,0.00,,---,0.00,VWS V14.01,2013-10-12 17:53:00,
2013-10-12 11:58:00,54.0,21.6,30.24,SSW,199,0.0,0.0,28,0.00,,---,0.00,VWS V14.01,2013-10-12 17:58:00,
2013-10-12 12:04:00,54.1,22.6,30.24,SSW,202,4.0,4.0,29,0.00,,---,0.00,VWS V14.01,2013-10-12 18:04:00,
2013-10-12 12:10:00,54.3,21.9,30.24,South,172,0.0,0.0,28,0.00,,---,0.00,VWS V14.01,2013-10-12 18:10:00,
2013-10-12 12:15:00,54.3,21.9,30.24,South,173,0.0,0.0,28,0.00,,---,0.00,VWS V14.01,2013-10-12 18:15:00,
2013-10-12 12:21:00,54.5,22.1,30.24,WSW,253,5.4,5.4,28,0.00,,---,0.00,VWS V14.01,2013-10-12 18:21:00,
2013-10-12 12:26:00,54.3,21.9,30.24,SW,233,2.2,3.6,28,0.00,,---,0.00,VWS V14.01,2013-10-12 18:26:00,
2013-10-12 12:32:00,54.3,21.9,30.24,SW,233,0.0,0.0,28,0.00,,---,0.00,VWS V14.01,2013-10-12 18:32:00,
2013-10-12 12:37:00,54.3,21.9,30.24,SW,233,0.0,0.0,28,0.00,,---,0.00,VWS V14.01,2013-10-12 18:37:00,
2013-10-12 12:43:00,54.3,21.9,30.24,SW,233,0.0,0.0,28,0.00,,---,0.00,VWS V14.01,2013-10-12 18:43:00,
2013-10-12 12:49:00,54.3,21.9,30.24,SW,233,0.0,0.0,28,0.00,,---,0.00,VWS V14.01,2013-10-12 18:49:00,
2013-10-12 12:54:00,54.9,21.5,30.24,SSE,166,4.0,5.8,27,0.00,,---,0.00,VWS V14.01,2013-10-12 18:54:00,
2013-10-12 13:00:00,56.5,22.9,30.21,WNW,300,0.0,2.2,27,0.00,,---,0.00,VWS V14.01,2013-10-12 19:00:00,
2013-10-12 13:05:00,56.7,23.1,30.21,WNW,303,0.0,0.0,27,0.00,,---,0.00,VWS V14.01,2013-10-12 19:05:00,
2013-10-12 13:11:00,57.0,23.4,30.21,SSE,152,2.7,3.6,27,0.00,,---,0.00,VWS V14.01,2013-10-12 19:11:00,
2013-10-12 13:16:00,57.0,23.4,30.21,SSE,153,0.0,0.0,27,0.00,,---,0.00,VWS V14.01,2013-10-12 19:16:00,
2013-10-12 13:22:00,57.4,22.8,30.21,SSE,156,0.0,0.0,26,0.00,,---,0.00,VWS V14.01,2013-10-12 19:22:00,
2013-10-12 13:28:00,57.7,23.1,30.21,SSE,156,0.0,0.0,26,0.00,,---,0.00,VWS V14.01,2013-10-12 19:28:00,
2013-10-12 13:33:00,57.7,23.1,30.21,South,176,0.0,2.7,26,0.00,,---,0.00,VWS V14.01,2013-10-12 19:33:00,
2013-10-12 13:39:00,57.6,22.0,30.21,South,177,0.0,0.0,25,0.00,,---,0.00,VWS V14.01,2013-10-12 19:39:00,
2013-10-12 13:45:00,57.6,22.0,30.21,South,179,0.0,0.0,25,0.00,,---,0.00,VWS V14.01,2013-10-12 19:45:00,
2013-10-12 13:50:00,57.9,22.3,30.21,South,179,0.0,0.0,25,0.00,,---,0.00,VWS V14.01,2013-10-12 19:50:00,
2013-10-12 13:56:00,58.6,22.9,30.21,SSE,157,5.4,5.4,25,0.00,,---,0.00,VWS V14.01,2013-10-12 19:56:00,
2013-10-12 14:01:00,59.0,23.2,30.21,South,186,3.1,4.9,25,0.00,,---,0.00,VWS V14.01,2013-10-12 20:01:00,
2013-10-12 14:06:00,59.2,23.4,30.21,SE,137,0.0,4.0,25,0.00,,---,0.00,VWS V14.01,2013-10-12 20:06:00,
2013-10-12 14:11:00,59.4,23.6,30.21,SSW,201,3.6,4.0,25,0.00,,---,0.00,VWS V14.01,2013-10-12 20:11:00,
2013-10-12 14:17:00,59.2,22.4,30.21,South,187,2.7,2.7,24,0.00,,---,0.00,VWS V14.01,2013-10-12 20:17:00,
2013-10-12 14:22:00,59.2,23.4,30.21,South,186,0.0,0.0,25,0.00,,---,0.00,VWS V14.01,2013-10-12 20:22:00,
2013-10-12 14:28:00,59.2,23.4,30.21,SE,140,8.7,10.5,25,0.00,,---,0.00,VWS V14.01,2013-10-12 20:28:00,
2013-10-12 14:34:00,59.4,22.6,30.21,SE,146,8.7,8.7,24,0.00,,---,0.00,VWS V14.01,2013-10-12 20:34:00,
2013-10-12 14:40:00,59.4,22.6,30.21,SE,145,2.7,6.3,24,0.00,,---,0.00,VWS V14.01,2013-10-12 20:40:00,
2013-10-12 14:46:00,59.5,22.7,30.21,South,169,2.7,5.4,24,0.00,,---,0.00,VWS V14.01,2013-10-12 20:46:00,
2013-10-12 14:52:00,59.7,22.9,30.21,SE,132,0.0,3.6,24,0.00,,---,0.00,VWS V14.01,2013-10-12 20:52:00,
2013-10-12 14:57:00,59.7,22.9,30.21,SSE,164,3.6,3.6,24,0.00,,---,0.00,VWS V14.01,2013-10-12 20:57:00,
2013-10-12 15:03:00,59.7,22.9,30.21,SE,140,6.7,8.3,24,0.00,,---,0.00,VWS V14.01,2013-10-12 21:03:00,
2013-10-12 15:08:00,59.2,22.4,30.21,SE,142,10.1,11.0,24,0.00,,---,0.00,VWS V14.01,2013-10-12 21:08:00,
2013-10-12 15:14:00,58.8,23.1,30.21,SSE,156,7.6,10.1,25,0.00,,---,0.00,VWS V14.01,2013-10-12 21:14:00,
2013-10-12 15:19:00,58.5,22.8,30.21,SSE,162,8.3,8.3,25,0.00,,---,0.00,VWS V14.01,2013-10-12 21:19:00,
2013-10-12 15:24:00,58.5,22.8,30.21,SSE,158,6.3,8.3,25,0.00,,---,0.00,VWS V14.01,2013-10-12 21:24:00,
2013-10-12 15:30:00,58.5,22.8,30.21,SSE,165,5.4,6.3,25,0.00,,---,0.00,VWS V14.01,2013-10-12 21:30:00,
2013-10-12 15:35:00,58.5,22.8,30.21,SSE,152,8.7,8.7,25,0.00,,---,0.00,VWS V14.01,2013-10-12 21:35:00,
2013-10-12 15:41:00,58.6,22.9,30.21,SSE,152,10.1,10.1,25,0.00,,---,0.00,VWS V14.01,2013-10-12 21:41:00,
2013-10-12 15:46:00,58.8,23.1,30.21,SSE,151,7.2,7.2,25,0.00,,---,0.00,VWS V14.01,2013-10-12 21:46:00,
2013-10-12 15:52:00,59.0,22.3,30.18,SE,136,10.1,11.0,24,0.00,,---,0.00,VWS V14.01,2013-10-12 21:52:00,
2013-10-12 15:58:00,59.2,22.4,30.18,SE,139,10.1,11.0,24,0.00,,---,0.00,VWS V14.01,2013-10-12 21:58:00,
2013-10-12 16:03:00,59.0,22.3,30.18,South,183,10.5,10.5,24,0.00,,---,0.00,VWS V14.01,2013-10-12 22:03:00,
2013-10-12 16:09:00,58.8,23.1,30.18,SE,134,11.0,11.0,25,0.00,,---,0.00,VWS V14.01,2013-10-12 22:09:00,
2013-10-12 16:14:00,58.5,22.8,30.18,SSE,153,10.1,10.5,25,0.00,,---,0.00,VWS V14.01,2013-10-12 22:14:00,
2013-10-12 16:20:00,58.1,22.5,30.18,SSE,153,8.7,11.0,25,0.00,,---,0.00,VWS V14.01,2013-10-12 22:20:00,
2013-10-12 16:26:00,57.7,22.2,30.21,SE,145,11.9,11.9,25,0.00,,---,0.00,VWS V14.01,2013-10-12 22:26:00,
2013-10-12 16:31:00,57.7,22.2,30.21,SSE,154,10.5,10.5,25,0.00,,---,0.00,VWS V14.01,2013-10-12 22:31:00,
2013-10-12 16:36:00,57.6,22.0,30.21,SSE,161,11.0,11.0,25,0.00,,---,0.00,VWS V14.01,2013-10-12 22:36:00,
2013-10-12 16:42:00,57.6,22.0,30.21,SSE,157,7.6,7.6,25,0.00,,---,0.00,VWS V14.01,2013-10-12 22:42:00,
2013-10-12 16:48:00,57.6,22.0,30.21,SSE,162,7.6,10.5,25,0.00,,---,0.00,VWS V14.01,2013-10-12 22:48:00,
2013-10-12 16:53:00,57.4,20.9,30.21,SSE,156,11.0,11.0,24,0.00,,---,0.00,VWS V14.01,2013-10-12 22:53:00,
2013-10-12 16:59:00,57.2,20.8,30.21,SE,135,13.2,13.2,24,0.00,,---,0.00,VWS V14.01,2013-10-12 22:59:00,
2013-10-12 17:04:00,57.2,20.8,30.21,SSE,150,10.5,11.0,24,0.00,,---,0.00,VWS V14.01,2013-10-12 23:04:00,
2013-10-12 17:09:00,57.2,20.8,30.21,SE,141,15.0,15.0,24,0.00,,---,0.00,VWS V14.01,2013-10-12 23:09:00,
2013-10-12 17:14:00,57.4,20.9,30.18,SSE,151,13.2,13.2,24,0.00,,---,0.00,VWS V14.01,2013-10-12 23:14:00,
2013-10-12 17:20:00,57.2,20.8,30.18,SE,140,13.2,13.2,24,0.00,,---,0.00,VWS V14.01,2013-10-12 23:20:00,
2013-10-12 17:26:00,57.2,20.8,30.21,SSE,147,13.2,13.2,24,0.00,,---,0.00,VWS V14.01,2013-10-12 23:26:00,
2013-10-12 17:31:00,56.8,21.4,30.21,SE,133,10.5,10.5,25,0.00,,---,0.00,VWS V14.01,2013-10-12 23:31:00,
2013-10-12 17:36:00,56.5,21.1,30.21,SE,145,10.5,10.5,25,0.00,,---,0.00,VWS V14.01,2013-10-12 23:36:00,
2013-10-12 17:42:00,55.6,20.3,30.21,SE,145,10.5,10.5,25,0.00,,---,0.00,VWS V14.01,2013-10-12 23:42:00,
2013-10-12 17:48:00,55.0,19.9,30.21,SE,145,8.1,8.7,25,0.00,,---,0.00,VWS V14.01,2013-10-12 23:48:00,
2013-10-12 17:54:00,54.3,19.3,30.21,SE,138,8.3,8.3,25,0.00,,---,0.00,VWS V14.01,2013-10-12 23:54:00,
2013-10-12 17:59:00,53.6,19.6,30.21,SE,134,8.7,8.7,26,0.00,,---,0.00,VWS V14.01,2013-10-12 23:59:00,
2013-10-12 18:05:00,53.1,19.1,30.21,ESE,111,6.3,6.3,26,0.00,,---,0.00,VWS V14.01,2013-10-13 00:05:00,
2013-10-12 18:10:00,52.7,18.8,30.21,East,100,6.3,6.3,26,0.00,,---,0.00,VWS V14.01,2013-10-13 00:10:00,
2013-10-12 18:16:00,51.4,17.7,30.21,ESE,106,6.3,7.2,26,0.00,,---,0.00,VWS V14.01,2013-10-13 00:16:00,
2013-10-12 18:22:00,50.5,17.0,30.21,East,99,6.3,7.2,26,0.00,,---,0.00,VWS V14.01,2013-10-13 00:22:00,
2013-10-12 18:27:00,50.0,16.5,30.21,ESE,105,8.3,8.3,26,0.00,,---,0.00,VWS V14.01,2013-10-13 00:27:00,
2013-10-12 18:32:00,49.3,16.7,30.21,ESE,109,8.3,8.7,27,0.00,,---,0.00,VWS V14.01,2013-10-13 00:32:00,
2013-10-12 18:37:00,49.1,16.6,30.21,ESE,115,9.2,9.6,27,0.00,,---,0.00,VWS V14.01,2013-10-13 00:37:00,
2013-10-12 18:43:00,48.7,16.3,30.21,ESE,116,8.7,8.7,27,0.00,,---,0.00,VWS V14.01,2013-10-13 00:43:00,
2013-10-12 18:48:00,48.7,16.3,30.21,ESE,111,8.3,8.3,27,0.00,,---,0.00,VWS V14.01,2013-10-13 00:48:00,
2013-10-12 18:54:00,48.4,16.0,30.21,ESE,108,9.2,9.2,27,0.00,,---,0.00,VWS V14.01,2013-10-13 00:54:00,
2013-10-12 19:00:00,48.4,16.8,30.21,ESE,114,10.1,10.5,28,0.00,,---,0.00,VWS V14.01,2013-10-13 01:00:00,
2013-10-12 19:06:00,48.2,16.6,30.21,ESE,118,11.0,11.0,28,0.00,,---,0.00,VWS V14.01,2013-10-13 01:06:00,
2013-10-12 19:12:00,48.2,16.6,30.21,ESE,118,8.7,8.7,28,0.00,,---,0.00,VWS V14.01,2013-10-13 01:12:00,
2013-10-12 19:18:00,48.2,16.6,30.21,ESE,120,11.0,11.0,28,0.00,,---,0.00,VWS V14.01,2013-10-13 01:18:00,
2013-10-12 19:23:00,48.2,16.6,30.21,ESE,120,10.5,11.4,28,0.00,,---,0.00,VWS V14.01,2013-10-13 01:23:00,
2013-10-12 19:29:00,47.7,17.0,30.21,ESE,111,10.1,10.5,29,0.00,,---,0.00,VWS V14.01,2013-10-13 01:29:00,
2013-10-12 19:34:00,47.5,16.8,30.21,ESE,110,12.3,12.3,29,0.00,,---,0.00,VWS V14.01,2013-10-13 01:34:00,
2013-10-12 19:40:00,47.1,16.5,30.21,ESE,114,12.3,12.3,29,0.00,,---,0.00,VWS V14.01,2013-10-13 01:40:00,
2013-10-12 19:46:00,46.8,17.0,30.21,ESE,117,10.5,10.5,30,0.00,,---,0.00,VWS V14.01,2013-10-13 01:46:00,
2013-10-12 19:51:00,46.6,16.8,30.21,ESE,106,11.0,11.0,30,0.00,,---,0.00,VWS V14.01,2013-10-13 01:51:00,
2013-10-12 19:56:00,46.6,16.8,30.21,ESE,102,11.0,11.0,30,0.00,,---,0.00,VWS V14.01,2013-10-13 01:56:00,
2013-10-12 20:02:00,46.6,16.8,30.21,ESE,106,8.7,8.7,30,0.00,,---,0.00,VWS V14.01,2013-10-13 02:02:00,
2013-10-12 20:05:00,46.6,16.8,30.21,ESE,106,8.7,8.7,30,0.00,,---,0.00,VWS V14.01,2013-10-13 02:05:00,
2013-10-12 20:11:00,46.6,16.8,30.21,ESE,116,10.1,10.1,30,0.00,,---,0.00,VWS V14.01,2013-10-13 02:11:00,
2013-10-12 20:16:00,46.4,17.4,30.21,ESE,112,11.0,11.0,31,0.00,,---,0.00,VWS V14.01,2013-10-13 02:16:00,
2013-10-12 20:22:00,46.6,18.3,30.21,ESE,116,10.5,10.5,32,0.00,,---,0.00,VWS V14.01,2013-10-13 02:22:00,
2013-10-12 20:28:00,46.8,18.5,30.21,ESE,113,9.6,11.0,32,0.00,,---,0.00,VWS V14.01,2013-10-13 02:28:00,
2013-10-12 20:33:00,46.8,18.5,30.21,ESE,109,10.1,10.1,32,0.00,,---,0.00,VWS V14.01,2013-10-13 02:33:00,
2013-10-12 20:38:00,46.6,18.3,30.21,ESE,112,8.3,8.3,32,0.00,,---,0.00,VWS V14.01,2013-10-13 02:38:00,
2013-10-12 20:44:00,46.4,18.9,30.21,ESE,109,7.6,8.3,33,0.00,,---,0.00,VWS V14.01,2013-10-13 02:44:00,
2013-10-12 20:50:00,46.0,18.6,30.21,ESE,108,8.3,8.7,33,0.00,,---,0.00,VWS V14.01,2013-10-13 02:50:00,
2013-10-12 20:55:00,45.7,18.2,30.21,ESE,109,9.6,9.6,33,0.00,,---,0.00,VWS V14.01,2013-10-13 02:55:00,
2013-10-12 21:00:00,45.5,18.1,30.21,ESE,105,10.1,10.1,33,0.00,,---,0.00,VWS V14.01,2013-10-13 03:00:00,
2013-10-12 21:06:00,45.0,17.6,30.21,ESE,107,9.2,9.2,33,0.00,,---,0.00,VWS V14.01,2013-10-13 03:06:00,
2013-10-12 21:11:00,44.4,17.8,30.21,ESE,104,8.7,8.7,34,0.00,,---,0.00,VWS V14.01,2013-10-13 03:11:00,
2013-10-12 21:16:00,44.1,17.5,30.21,East,101,8.3,8.3,34,0.00,,---,0.00,VWS V14.01,2013-10-13 03:16:00,
2013-10-12 21:21:00,43.9,17.4,30.21,ESE,102,8.1,8.1,34,0.00,,---,0.00,VWS V14.01,2013-10-13 03:21:00,
2013-10-12 21:27:00,43.7,17.2,30.21,ESE,103,8.3,8.3,34,0.00,,---,0.00,VWS V14.01,2013-10-13 03:27:00,
2013-10-12 21:32:00,43.7,17.9,30.21,East,101,8.7,8.7,35,0.00,,---,0.00,VWS V14.01,2013-10-13 03:32:00,
2013-10-12 21:38:00,43.7,17.9,30.21,East,101,7.6,7.6,35,0.00,,---,0.00,VWS V14.01,2013-10-13 03:38:00,
2013-10-12 21:43:00,43.7,17.9,30.21,ESE,105,8.7,8.7,35,0.00,,---,0.00,VWS V14.01,2013-10-13 03:43:00,
2013-10-12 21:49:00,43.7,17.9,30.21,ESE,106,10.1,10.1,35,0.00,,---,0.00,VWS V14.01,2013-10-13 03:49:00,
2013-10-12 21:54:00,43.9,18.7,30.21,ESE,104,8.3,8.3,36,0.00,,---,0.00,VWS V14.01,2013-10-13 03:54:00,
2013-10-12 21:59:00,43.7,18.5,30.21,ESE,110,8.3,8.7,36,0.00,,---,0.00,VWS V14.01,2013-10-13 03:59:00,
2013-10-12 22:01:00,43.7,18.5,30.21,ESE,104,8.3,8.3,36,0.00,,---,0.00,VWS V14.01,2013-10-13 04:01:00,
2013-10-12 22:02:00,43.7,18.5,30.21,ESE,104,8.3,8.3,36,0.00,,---,0.00,VWS V14.01,2013-10-13 04:02:00,
2013-10-12 22:03:00,43.7,18.5,30.21,ESE,104,8.3,8.3,36,0.00,,---,0.00,VWS V14.01,2013-10-13 04:03:00,
2013-10-12 22:04:00,43.7,18.5,30.21,ESE,104,8.3,8.3,36,0.00,,---,0.00,VWS V14.01,2013-10-13 04:04:00,
2013-10-12 22:05:00,43.7,18.5,30.21,ESE,110,8.7,8.7,36,0.00,,---,0.00,VWS V14.01,2013-10-13 04:05:00,
2013-10-12 22:06:00,43.7,18.5,30.21,ESE,110,8.7,8.7,36,0.00,,---,0.00,VWS V14.01,2013-10-13 04:06:00,
2013-10-12 22:11:00,43.5,18.4,30.21,ESE,110,8.3,8.3,36,0.00,,---,0.00,VWS V14.01,2013-10-13 04:11:00,
2013-10-12 22:16:00,43.5,19.0,30.21,ESE,117,7.6,8.7,37,0.00,,---,0.00,VWS V14.01,2013-10-13 04:16:00,
2013-10-12 22:21:00,43.3,18.8,30.21,ESE,115,9.2,9.2,37,0.00,,---,0.00,VWS V14.01,2013-10-13 04:21:00,
2013-10-12 22:27:00,43.2,18.7,30.21,ESE,113,7.6,7.6,37,0.00,,---,0.00,VWS V14.01,2013-10-13 04:27:00,
2013-10-12 22:32:00,43.0,19.1,30.21,ESE,116,9.2,9.2,38,0.00,,---,0.00,VWS V14.01,2013-10-13 04:32:00,
2013-10-12 22:37:00,43.0,19.1,30.21,SE,126,10.5,10.5,38,0.00,,---,0.00,VWS V14.01,2013-10-13 04:37:00,
2013-10-12 22:42:00,43.2,19.3,30.21,SE,128,10.1,11.0,38,0.00,,---,0.00,VWS V14.01,2013-10-13 04:42:00,
2013-10-12 22:47:00,43.3,19.5,30.21,SE,124,10.1,10.5,38,0.00,,---,0.00,VWS V14.01,2013-10-13 04:47:00,
2013-10-12 22:52:00,43.7,19.8,30.21,ESE,123,10.1,10.1,38,0.00,,---,0.00,VWS V14.01,2013-10-13 04:52:00,
2013-10-12 22:58:00,43.9,19.9,30.21,SE,124,11.0,11.0,38,0.00,,---,0.00,VWS V14.01,2013-10-13 04:58:00,
2013-10-12 23:03:00,44.1,20.7,30.21,SE,127,12.8,12.8,39,0.00,,---,0.00,VWS V14.01,2013-10-13 05:03:00,
2013-10-12 23:09:00,44.1,20.7,30.21,SE,128,10.5,10.5,39,0.00,,---,0.00,VWS V14.01,2013-10-13 05:09:00,
2013-10-12 23:14:00,44.1,20.7,30.21,ESE,113,12.8,12.8,39,0.00,,---,0.00,VWS V14.01,2013-10-13 05:14:00,
2013-10-12 23:20:00,44.2,20.9,30.21,SE,124,11.9,11.9,39,0.00,,---,0.00,VWS V14.01,2013-10-13 05:20:00,
2013-10-12 23:26:00,44.4,21.0,30.21,SE,125,12.8,12.8,39,0.00,,---,0.00,VWS V14.01,2013-10-13 05:26:00,
2013-10-12 23:31:00,44.4,21.0,30.21,SE,129,12.8,12.8,39,0.00,,---,0.00,VWS V14.01,2013-10-13 05:31:00,
2013-10-12 23:37:00,44.2,21.5,30.21,SE,128,11.0,11.4,40,0.00,,---,0.00,VWS V14.01,2013-10-13 05:37:00,
2013-10-12 23:42:00,44.2,21.5,30.21,SE,128,12.8,12.8,40,0.00,,---,0.00,VWS V14.01,2013-10-13 05:42:00,
2013-10-12 23:48:00,44.1,21.3,30.21,SE,134,11.9,12.8,40,0.00,,---,0.00,VWS V14.01,2013-10-13 05:48:00,
2013-10-12 23:53:00,44.1,21.3,30.21,SE,135,12.3,12.3,40,0.00,,---,0.00,VWS V14.01,2013-10-13 05:53:00,
2013-10-12 23:59:00,44.1,21.3,30.21,SE,124,11.0,11.0,40,0.00,,---,0.00,VWS V14.01,2013-10-13 05:59:00,